Flight Track Log - Related Links

Times and Time Zones

All times are in EST time to prevent confusion due to time zone crossing. See the SWA479 flight status page for this flight to view local times or setup timezone preferences in your user account.

Time Position Orientation Groundspeed Altitude Reporting Facility
EST Latitude Longitude Course Direction KTS MPH feet Rate Location/Type
Fri 05:13:09 PM 39.1833 -76.7000 284° West 165 190 1,300  Level Potomac TRACON
Fri 05:14:15 PM 39.2000 -76.7833 284° West 224 258 3,900 3,095 Climbing Potomac TRACON
Fri 05:15:15 PM 39.2167 -76.8667 284° West 238 274 7,800 3,211 Climbing Potomac TRACON
Fri 05:16:09 PM 39.2500 -76.9333 303° West 240 276 10,000 2,188 Climbing Potomac TRACON
Fri 05:18:27 PM 39.3331 -77.1292 299° West 294 338 14,800 2,112 Climbing Washington Center
Fri 05:19:25 PM 39.4069 -77.2058 321° Northwest 317 365 16,900 2,385 Climbing Washington Center
Fri 05:21:08 PM 39.5464 -77.3517 321° Northwest 361 415 21,200 2,327 Climbing Cleveland Center
Fri 05:22:10 PM 39.6442 -77.4042 338° Northwest 387 445 23,300 1,839 Climbing Cleveland Center
Fri 05:23:12 PM 39.7492 -77.4419 345° North 392 451 25,000 823 Climbing Cleveland Center
Fri 05:24:14 PM 39.8547 -77.4800 345° North 394 453 25,000 435 Level Cleveland Center
Fri 05:25:16 PM 39.9622 -77.5214 344° North 401 461 25,900 484 Climbing Cleveland Center
Fri 05:26:18 PM 40.0917 -77.5683 344° North 402 463 26,000 48 Climbing Cleveland Center
Fri 05:27:20 PM 40.1997 -77.6061 345° North 402 463 26,000  Level Cleveland Center
Fri 05:28:22 PM 40.2989 -77.6425 344° North 401 461 26,000  Level Cleveland Center
Fri 05:29:24 PM 40.4058 -77.6828 344° North 400 460 26,000  Level Cleveland Center
Fri 05:30:26 PM 40.5336 -77.7294 344° North 399 459 26,000  Level Cleveland Center
Fri 05:31:28 PM 40.6397 -77.7683 344° North 399 459 26,000  Level Cleveland Center
Fri 05:32:30 PM 40.7456 -77.8078 344° North 397 457 26,000  Level Cleveland Center
Fri 05:33:32 PM 40.8506 -77.8469 344° North 396 456 26,000  Level Cleveland Center
Fri 05:34:34 PM 40.9564 -77.8867 344° North 398 458 26,000 -871 Level Cleveland Center
Fri 05:35:36 PM 41.0819 -77.9322 345° North 395 455 24,200 -968 Descending Cleveland Center
Fri 05:36:38 PM 41.1842 -77.9728 343° North 389 448 24,000 -97 Descending Cleveland Center
Fri 05:37:40 PM 41.2861 -78.0108 344° North 387 445 24,000  Level Cleveland Center
Fri 05:38:42 PM 41.3839 -78.0461 345° North 376 433 24,000  Level Cleveland Center
Fri 05:39:44 PM 41.4772 -78.0819 344° North 359 413 24,000  Level Cleveland Center
Fri 05:40:47 PM 41.5925 -78.1250 344° North 360 414 24,000  Level Cleveland Center
Fri 05:41:49 PM 41.6925 -78.1636 344° North 372 428 24,000  Level Cleveland Center
Fri 05:42:51 PM 41.7914 -78.2011 344° North 373 429 24,000 -919 Level Cleveland Center
Fri 05:43:53 PM 41.8892 -78.2386 344° North 370 426 22,100 -1,984 Descending Cleveland Center
Fri 05:44:55 PM 42.0006 -78.2825 344° North 353 406 19,900 -2,226 Descending Cleveland Center
Fri 05:45:57 PM 42.0936 -78.3178 344° North 350 403 17,500 -2,323 Descending Cleveland Center
Fri 05:46:59 PM 42.1933 -78.3356 352° North 342 394 15,100 -2,129 Descending Cleveland Center
Fri 05:48:01 PM 42.2856 -78.3469 355° North 333 383 13,100 -2,032 Descending Cleveland Center
Fri 05:49:03 PM 42.3744 -78.3594 354° North 325 374 10,900 -1,488 Descending Cleveland Center
Fri 05:50:06 PM 42.4622 -78.3656 357° North 316 364 10,000 -480 Descending Cleveland Center
Fri 05:51:08 PM 42.5414 -78.3708 357° North 290 334 9,900 -871 Descending Cleveland Center
Fri 05:52:10 PM 42.6156 -78.3769 357° North 272 313 8,200 -1,548 Descending Cleveland Center
Fri 05:53:12 PM 42.6897 -78.3864 355° North 267 307 6,700 -1,065 Descending Cleveland Center
Fri 05:54:14 PM 42.7750 -78.4006 353° North 260 299 6,000 -774 Descending Cleveland Center
Fri 05:55:16 PM 42.8469 -78.4247 346° North 257 296 5,100 -968 Descending Cleveland Center
Fri 05:56:18 PM 42.9161 -78.4475 346° North 250 288 4,000 -726 Descending Cleveland Center
Fri 05:57:20 PM 42.9736 -78.4789 338° Northwest 239 275 3,600 -677 Descending Cleveland Center
Fri 05:58:22 PM 43.0142 -78.5361 314° West 207 238 2,600 -629 Descending Cleveland Center
Fri 05:59:24 PM 43.0358 -78.5889 299° West 166 191 2,300 -99 Descending Cleveland Center
Fri 06:00:23 PM 43.0167 -78.6333 239° Southwest 145 167 2,400 -202 Climbing Buffalo TRACON
Fri 06:01:23 PM 42.9833 -78.6667 216° Southwest 113 130 1,900 -600 Descending Buffalo TRACON
Fri 06:02:23 PM 42.9667 -78.7000 236° Southwest 124 143 1,200 -700 Descending Buffalo TRACON

Login

Don't have an account? Register now (free) for customized features, flight alerts, and more!